createdAt,value
2018-07-20T00:00:17.299Z,937.71
2018-07-20T00:01:17.460Z,937.71
2018-07-20T00:02:17.334Z,937.72
2018-07-20T00:03:17.347Z,937.69
2018-07-20T00:04:17.359Z,937.67
2018-07-20T00:05:17.379Z,937.70
2018-07-20T00:06:17.641Z,937.73
2018-07-20T00:07:17.408Z,937.72
2018-07-20T00:08:17.423Z,937.78
2018-07-20T00:09:17.437Z,937.70
2018-07-20T00:10:17.438Z,937.74
2018-07-20T00:11:17.713Z,937.75
2018-07-20T00:12:17.478Z,937.77
2018-07-20T00:13:17.498Z,937.75
2018-07-20T00:14:17.513Z,937.77
2018-07-20T00:15:17.528Z,937.79
2018-07-20T00:16:17.540Z,937.76
2018-07-20T00:17:17.705Z,937.79
2018-07-20T00:18:17.574Z,937.78
2018-07-20T00:19:17.572Z,937.74
2018-07-20T00:20:17.594Z,937.79
2018-07-20T00:21:17.602Z,937.79
2018-07-20T00:22:17.652Z,937.76
2018-07-20T00:23:17.754Z,937.76
2018-07-20T00:24:18.079Z,937.75
2018-07-20T00:25:17.681Z,937.76
2018-07-20T00:26:17.697Z,937.74
2018-07-20T00:27:17.723Z,937.72
2018-07-20T00:28:17.980Z,937.70
2018-07-20T00:29:17.744Z,937.73
2018-07-20T00:30:17.777Z,937.73
2018-07-20T00:31:17.778Z,937.71
2018-07-20T00:32:17.773Z,937.70
2018-07-20T00:33:18.052Z,937.70
2018-07-20T00:34:17.819Z,937.71
2018-07-20T00:35:17.835Z,937.74
2018-07-20T00:36:17.848Z,937.72
2018-07-20T00:37:17.863Z,937.71
2018-07-20T00:38:17.979Z,937.68
2018-07-20T00:39:17.898Z,937.69
2018-07-20T00:40:17.909Z,937.67
2018-07-20T00:41:17.909Z,937.67
2018-07-20T00:42:17.943Z,937.69
2018-07-20T00:43:18.185Z,937.70
2018-07-20T00:44:17.949Z,937.67
2018-07-20T00:45:17.992Z,937.69
2018-07-20T00:46:18.004Z,937.71
2018-07-20T00:47:18.024Z,937.77
2018-07-20T00:48:18.288Z,937.81
2018-07-20T00:49:18.042Z,937.79
2018-07-20T00:50:18.060Z,937.77
2018-07-20T00:51:18.080Z,937.74
2018-07-20T00:52:18.089Z,937.74
2018-07-20T00:53:18.342Z,937.77
2018-07-20T00:54:18.116Z,937.76
2018-07-20T00:55:18.132Z,937.78
2018-07-20T00:56:18.152Z,937.76
2018-07-20T00:57:18.161Z,937.77
2018-07-20T00:58:18.326Z,937.73
2018-07-20T00:59:18.282Z,937.73
2018-07-20T01:00:18.185Z,937.76
2018-07-20T01:01:18.224Z,937.70
2018-07-20T01:02:18.235Z,937.76
2018-07-20T01:03:18.353Z,937.79
2018-07-20T01:04:18.253Z,937.78
2018-07-20T01:05:18.299Z,937.78
2018-07-20T01:06:18.300Z,937.81
2018-07-20T01:07:18.304Z,937.78
2018-07-20T01:08:18.478Z,937.83
2018-07-20T01:09:18.346Z,937.82
2018-07-20T01:10:18.366Z,937.79
2018-07-20T01:11:18.375Z,937.81
2018-07-20T01:12:18.393Z,937.83
2018-07-20T01:13:18.557Z,937.85
2018-07-20T01:14:18.416Z,937.79
2018-07-20T01:15:18.440Z,937.79
2018-07-20T01:16:18.451Z,937.76
2018-07-20T01:17:18.467Z,937.79
2018-07-20T01:18:18.574Z,937.75
2018-07-20T01:19:18.492Z,937.76
2018-07-20T01:20:18.503Z,937.73
2018-07-20T01:21:18.518Z,937.71
2018-07-20T01:22:18.534Z,937.73
2018-07-20T01:23:18.706Z,937.73
2018-07-20T01:24:18.568Z,937.73
2018-07-20T01:25:18.564Z,937.75
2018-07-20T01:26:18.591Z,937.71
2018-07-20T01:27:18.593Z,937.72
2018-07-20T01:28:18.628Z,937.71
2018-07-20T01:29:18.793Z,937.71
2018-07-20T01:30:18.658Z,937.73
2018-07-20T01:31:18.673Z,937.75
2018-07-20T01:32:18.683Z,937.75
2018-07-20T01:33:18.699Z,937.75
2018-07-20T01:34:18.867Z,937.74
2018-07-20T01:35:18.724Z,937.77
2018-07-20T01:36:18.738Z,937.70
2018-07-20T01:37:18.759Z,937.72
2018-07-20T01:38:18.755Z,937.75
2018-07-20T01:39:18.887Z,937.72
2018-07-20T01:40:18.789Z,937.73
2018-07-20T01:41:18.815Z,937.73
2018-07-20T01:42:18.830Z,937.71
2018-07-20T01:43:18.849Z,937.67
2018-07-20T01:44:19.116Z,937.70
2018-07-20T01:45:18.874Z,937.70
2018-07-20T01:46:18.887Z,937.71
2018-07-20T01:47:18.911Z,937.68
2018-07-20T01:48:18.931Z,937.69
2018-07-20T01:49:19.080Z,937.72
2018-07-20T01:50:25.262Z,937.75
2018-07-20T01:51:18.941Z,937.79
2018-07-20T01:52:18.961Z,937.73
2018-07-20T01:53:18.992Z,937.74
2018-07-20T01:54:19.254Z,937.72
2018-07-20T01:55:19.021Z,937.75
2018-07-20T01:56:19.036Z,937.74
2018-07-20T01:57:19.047Z,937.75
2018-07-20T01:58:19.067Z,937.76
2018-07-20T01:59:19.211Z,937.73
2018-07-20T02:00:19.089Z,937.77
2018-07-20T02:01:19.109Z,937.79
2018-07-20T02:02:19.124Z,937.76
2018-07-20T02:03:19.135Z,937.82
2018-07-20T02:04:19.296Z,937.79
2018-07-20T02:05:19.158Z,937.76
2018-07-20T02:06:19.159Z,937.77
2018-07-20T02:07:19.174Z,937.77
2018-07-20T02:08:19.210Z,937.77
2018-07-20T02:09:19.205Z,937.77
2018-07-20T02:10:19.236Z,937.76
2018-07-20T02:11:19.251Z,937.74
2018-07-20T02:12:19.266Z,937.71
2018-07-20T02:13:19.274Z,937.68
2018-07-20T02:14:19.445Z,937.69
2018-07-20T02:15:19.285Z,937.69
2018-07-20T02:16:19.327Z,937.65
2018-07-20T02:17:19.338Z,937.69
2018-07-20T02:18:19.349Z,937.64
2018-07-20T02:19:19.509Z,937.66
2018-07-20T02:20:19.378Z,937.60
2018-07-20T02:21:19.393Z,937.60
2018-07-20T02:22:19.405Z,937.64
2018-07-20T02:23:19.400Z,937.65
2018-07-20T02:24:19.534Z,937.62
2018-07-20T02:25:19.427Z,937.64
2018-07-20T02:26:19.439Z,937.64
2018-07-20T02:27:19.682Z,937.62
2018-07-20T02:28:19.497Z,937.65
2018-07-20T02:29:19.614Z,937.63
2018-07-20T02:30:19.720Z,937.64
2018-07-20T02:31:19.540Z,937.67
2018-07-20T02:32:19.549Z,937.66
2018-07-20T02:33:19.567Z,937.63
2018-07-20T02:34:19.679Z,937.67
2018-07-20T02:35:19.590Z,937.68
2018-07-20T02:36:19.608Z,937.66
2018-07-20T02:37:19.600Z,937.67
2018-07-20T02:38:19.634Z,937.67
2018-07-20T02:39:19.646Z,937.66
2018-07-20T02:40:19.816Z,937.65
2018-07-20T02:41:19.677Z,937.62
2018-07-20T02:42:19.699Z,937.62
2018-07-20T02:43:19.711Z,937.64
2018-07-20T02:44:19.721Z,937.65
2018-07-20T02:45:19.818Z,937.64
2018-07-20T02:46:19.752Z,937.68
2018-07-20T02:47:19.744Z,937.68
2018-07-20T02:48:19.779Z,937.64
2018-07-20T02:49:19.770Z,937.66
2018-07-20T02:50:19.953Z,937.69
2018-07-20T02:51:19.822Z,937.65
2018-07-20T02:52:19.836Z,937.65
2018-07-20T02:53:19.851Z,937.65
2018-07-20T02:54:19.864Z,937.66
2018-07-20T02:55:20.128Z,937.65
2018-07-20T02:56:32.620Z,937.67
2018-07-20T02:57:19.908Z,937.65
2018-07-20T02:58:19.918Z,937.63
2018-07-20T02:59:19.937Z,937.62
2018-07-20T03:00:20.097Z,937.63
2018-07-20T03:01:19.942Z,937.62
2018-07-20T03:02:19.980Z,937.63
2018-07-20T03:03:19.991Z,937.67
2018-07-20T03:04:20.008Z,937.63
2018-07-20T03:05:20.182Z,937.61
2018-07-20T03:06:20.012Z,937.64
2018-07-20T03:07:20.040Z,937.66
2018-07-20T03:08:20.057Z,937.62
2018-07-20T03:09:20.078Z,937.64
2018-07-20T03:10:20.194Z,937.60
2018-07-20T03:11:20.105Z,937.64
2018-07-20T03:12:20.116Z,937.64
2018-07-20T03:13:20.126Z,937.64
2018-07-20T03:14:20.122Z,937.61
2018-07-20T03:15:20.314Z,937.63
2018-07-20T03:16:20.155Z,937.64
2018-07-20T03:17:20.186Z,937.68
2018-07-20T03:18:20.198Z,937.66
2018-07-20T03:19:20.212Z,937.65
2018-07-20T03:20:20.331Z,937.62
2018-07-20T03:21:20.243Z,937.67
2018-07-20T03:22:20.251Z,937.61
2018-07-20T03:23:20.275Z,937.64
2018-07-20T03:24:20.284Z,937.65
2018-07-20T03:25:20.452Z,937.63
2018-07-20T03:26:20.310Z,937.63
2018-07-20T03:27:20.334Z,937.62
2018-07-20T03:28:20.340Z,937.64
2018-07-20T03:29:20.351Z,937.62
2018-07-20T03:30:20.514Z,937.64
2018-07-20T03:31:20.392Z,937.62
2018-07-20T03:32:20.399Z,937.62
2018-07-20T03:33:20.410Z,937.63
2018-07-20T03:34:20.422Z,937.66
2018-07-20T03:35:20.534Z,937.65
2018-07-20T03:36:20.433Z,937.60
2018-07-20T03:37:20.462Z,937.63
2018-07-20T03:38:20.474Z,937.59
2018-07-20T03:39:20.494Z,937.63
2018-07-20T03:40:20.653Z,937.58
2018-07-20T03:41:20.520Z,937.58
2018-07-20T03:42:20.534Z,937.57
2018-07-20T03:43:20.548Z,937.57
2018-07-20T03:44:20.557Z,937.56
2018-07-20T03:45:20.573Z,937.56
2018-07-20T03:46:20.682Z,937.56
2018-07-20T03:47:20.581Z,937.54
2018-07-20T03:48:20.612Z,937.53
2018-07-20T03:49:20.632Z,937.52
2018-07-20T03:50:20.640Z,937.53
2018-07-20T03:51:20.758Z,937.52
2018-07-20T03:52:20.653Z,937.53
2018-07-20T03:53:20.681Z,937.51
2018-07-20T03:54:20.697Z,937.48
2018-07-20T03:55:20.711Z,937.45
2018-07-20T03:56:20.875Z,937.48
2018-07-20T03:57:20.744Z,937.43
2018-07-20T03:58:20.753Z,937.42
2018-07-20T03:59:20.767Z,937.42
2018-07-20T04:00:20.762Z,937.40
2018-07-20T04:01:20.893Z,937.40
2018-07-20T04:02:20.811Z,937.36
2018-07-20T04:03:20.821Z,937.39
2018-07-20T04:04:20.816Z,937.34
2018-07-20T04:05:20.845Z,937.36
2018-07-20T04:06:21.010Z,937.34
2018-07-20T04:07:20.870Z,937.37
2018-07-20T04:08:20.881Z,937.32
2018-07-20T04:09:20.897Z,937.30
2018-07-20T04:10:21.003Z,937.32
2018-07-20T04:11:21.078Z,937.30
2018-07-20T04:12:20.940Z,937.29
2018-07-20T04:13:20.954Z,937.27
2018-07-20T04:14:20.964Z,937.30
2018-07-20T04:15:20.980Z,937.24
2018-07-20T04:16:21.139Z,937.24
2018-07-20T04:17:21.010Z,937.24
2018-07-20T04:18:21.015Z,937.27
2018-07-20T04:19:21.033Z,937.24
2018-07-20T04:20:21.037Z,937.26
2018-07-20T04:21:21.151Z,937.20
2018-07-20T04:22:21.049Z,937.20
2018-07-20T04:23:21.087Z,937.21
2018-07-20T04:24:21.097Z,937.18
2018-07-20T04:25:21.113Z,937.16
2018-07-20T04:26:21.377Z,937.17
2018-07-20T04:27:21.140Z,937.15
2018-07-20T04:28:21.156Z,937.14
2018-07-20T04:29:21.160Z,937.11
2018-07-20T04:30:21.170Z,937.10
2018-07-20T04:31:21.444Z,937.06
2018-07-20T04:32:21.205Z,937.06
2018-07-20T04:33:21.220Z,937.05
2018-07-20T04:34:21.228Z,937.05
2018-07-20T04:35:21.251Z,937.08
2018-07-20T04:36:21.432Z,937.05
2018-07-20T04:37:21.271Z,937.06
2018-07-20T04:38:21.275Z,937.09
2018-07-20T04:39:21.293Z,937.06
2018-07-20T04:40:21.308Z,937.02
2018-07-20T04:41:21.416Z,937.04
2018-07-20T04:42:21.332Z,937.04
2018-07-20T04:43:21.352Z,937.04
2018-07-20T04:44:21.345Z,937.07
2018-07-20T04:45:21.378Z,937.05
2018-07-20T04:46:21.482Z,937.03
2018-07-20T04:47:21.398Z,937.03
2018-07-20T04:48:21.407Z,937.03
2018-07-20T04:49:21.467Z,936.99
2018-07-20T04:50:21.434Z,937.05
2018-07-20T04:51:21.602Z,937.03
2018-07-20T04:52:21.463Z,937.04
2018-07-20T04:53:27.741Z,937.03
2018-07-20T04:54:21.493Z,937.05
2018-07-20T04:55:21.482Z,937.05
2018-07-20T04:56:21.518Z,937.03
2018-07-20T04:57:21.687Z,937.04
2018-07-20T04:58:21.546Z,936.98
2018-07-20T04:59:21.552Z,937.03
2018-07-20T05:00:21.563Z,937.03
2018-07-20T05:01:21.580Z,936.98
2018-07-20T05:02:21.596Z,936.97
2018-07-20T05:03:21.756Z,936.96
2018-07-20T05:04:21.624Z,936.96
2018-07-20T05:05:21.634Z,936.97
2018-07-20T05:06:21.645Z,936.98
2018-07-20T05:07:21.648Z,937.00
2018-07-20T05:08:21.823Z,936.96
2018-07-20T05:09:21.669Z,936.96
2018-07-20T05:10:21.680Z,936.94
2018-07-20T05:11:21.783Z,936.92
2018-07-20T05:12:21.733Z,936.89
2018-07-20T05:13:21.990Z,936.93
2018-07-20T05:14:21.761Z,936.93
2018-07-20T05:15:21.743Z,936.92
2018-07-20T05:16:21.776Z,936.90
2018-07-20T05:17:21.787Z,936.92
2018-07-20T05:18:21.956Z,936.93
2018-07-20T05:19:21.826Z,936.91
2018-07-20T05:20:21.815Z,936.94
2018-07-20T05:21:21.854Z,936.94
2018-07-20T05:22:21.864Z,936.95
2018-07-20T05:23:22.036Z,936.94
2018-07-20T05:24:21.888Z,936.95
2018-07-20T05:25:21.898Z,936.95
2018-07-20T05:26:21.911Z,936.96
2018-07-20T05:27:21.921Z,936.98
2018-07-20T05:28:22.083Z,936.94
2018-07-20T05:29:21.965Z,936.94
2018-07-20T05:30:21.971Z,936.94
2018-07-20T05:31:22.007Z,936.93
2018-07-20T05:32:21.987Z,936.92
2018-07-20T05:33:22.159Z,936.94
2018-07-20T05:34:22.031Z,936.94
2018-07-20T05:35:22.030Z,936.98
2018-07-20T05:36:22.044Z,936.93
2018-07-20T05:37:22.060Z,936.90
2018-07-20T05:38:22.177Z,936.89
2018-07-20T05:39:22.085Z,936.89
2018-07-20T05:40:22.101Z,936.89
2018-07-20T05:41:22.117Z,936.86
2018-07-20T05:42:22.118Z,936.86
2018-07-20T05:43:22.283Z,936.89
2018-07-20T05:44:22.161Z,936.89
2018-07-20T05:45:22.165Z,936.87
2018-07-20T05:46:22.175Z,936.87
2018-07-20T05:47:22.193Z,936.85
2018-07-20T05:48:22.358Z,936.83
2018-07-20T05:49:22.223Z,936.82
2018-07-20T05:50:22.231Z,936.78
2018-07-20T05:51:22.237Z,936.80
2018-07-20T05:52:22.263Z,936.78
2018-07-20T05:53:22.442Z,936.77
2018-07-20T05:54:22.283Z,936.77
2018-07-20T05:55:22.294Z,936.70
2018-07-20T05:56:22.288Z,936.77
2018-07-20T05:57:22.305Z,936.74
2018-07-20T05:58:22.431Z,936.73
2018-07-20T05:59:22.349Z,936.69
2018-07-20T06:00:22.362Z,936.69
2018-07-20T06:01:22.372Z,936.73
2018-07-20T06:02:22.388Z,936.68
2018-07-20T06:03:22.653Z,936.69
2018-07-20T06:04:22.423Z,936.68
2018-07-20T06:05:22.427Z,936.70
2018-07-20T06:06:22.440Z,936.70
2018-07-20T06:07:22.447Z,936.72
2018-07-20T06:08:22.464Z,936.69
2018-07-20T06:09:22.599Z,936.69
2018-07-20T06:10:22.490Z,936.70
2018-07-20T06:11:22.504Z,936.70
2018-07-20T06:12:22.508Z,936.72
2018-07-20T06:13:22.505Z,936.72
2018-07-20T06:14:22.571Z,936.75
2018-07-20T06:15:22.659Z,936.77
2018-07-20T06:16:22.558Z,936.77
2018-07-20T06:17:22.573Z,936.79
2018-07-20T06:18:22.571Z,936.79
2018-07-20T06:19:22.597Z,936.77
2018-07-20T06:20:22.726Z,936.83
2018-07-20T06:21:22.628Z,936.84
2018-07-20T06:22:22.645Z,936.84
2018-07-20T06:23:22.634Z,936.85
2018-07-20T06:24:22.670Z,936.85
2018-07-20T06:25:22.831Z,936.89
2018-07-20T06:26:22.687Z,936.87
2018-07-20T06:27:22.706Z,936.87
2018-07-20T06:28:22.751Z,936.88
2018-07-20T06:29:22.724Z,936.85
2018-07-20T06:30:22.871Z,936.88
2018-07-20T06:31:22.735Z,936.87
2018-07-20T06:32:22.748Z,936.84
2018-07-20T06:33:22.784Z,936.88
2018-07-20T06:34:22.813Z,936.89
2018-07-20T06:35:22.908Z,936.89
2018-07-20T06:36:22.835Z,936.86
2018-07-20T06:37:22.831Z,936.87
2018-07-20T06:38:22.839Z,936.84
2018-07-20T06:39:22.857Z,936.87
2018-07-20T06:40:23.023Z,936.83
2018-07-20T06:41:22.861Z,936.81
2018-07-20T06:42:22.896Z,936.82
2018-07-20T06:43:22.888Z,936.78
2018-07-20T06:44:22.933Z,936.77
2018-07-20T06:45:23.079Z,936.78
2018-07-20T06:46:22.946Z,936.80
2018-07-20T06:47:22.958Z,936.78
2018-07-20T06:48:22.970Z,936.76
2018-07-20T06:49:22.981Z,936.77
2018-07-20T06:50:23.101Z,936.74
2018-07-20T06:51:23.002Z,936.73
2018-07-20T06:52:23.019Z,936.76
2018-07-20T06:53:23.016Z,936.72
2018-07-20T06:54:23.054Z,936.72
2018-07-20T06:55:23.364Z,936.71
2018-07-20T06:56:23.103Z,936.74
2018-07-20T06:57:23.082Z,936.70
2018-07-20T06:58:23.097Z,936.71
2018-07-20T06:59:23.107Z,936.67
2018-07-20T07:00:23.282Z,936.68
2018-07-20T07:01:23.127Z,936.70
2018-07-20T07:02:23.158Z,936.67
2018-07-20T07:03:23.166Z,936.72
2018-07-20T07:04:23.197Z,936.68
2018-07-20T07:05:23.353Z,936.68
2018-07-20T07:06:23.198Z,936.67
2018-07-20T07:07:23.183Z,936.67
2018-07-20T07:08:23.233Z,936.66
2018-07-20T07:09:23.252Z,936.61
2018-07-20T07:10:23.365Z,936.63
2018-07-20T07:11:23.256Z,936.62
2018-07-20T07:12:23.271Z,936.61
2018-07-20T07:13:23.283Z,936.60
2018-07-20T07:14:23.302Z,936.56
2018-07-20T07:15:23.409Z,936.57
2018-07-20T07:16:23.312Z,936.54
2018-07-20T07:17:23.327Z,936.55
2018-07-20T07:18:23.356Z,936.55
2018-07-20T07:19:23.402Z,936.57
2018-07-20T07:20:23.619Z,936.52
2018-07-20T07:21:23.417Z,936.56
2018-07-20T07:22:23.376Z,936.50
2018-07-20T07:23:23.406Z,936.52
2018-07-20T07:24:23.407Z,936.52
2018-07-20T07:25:23.410Z,936.53
2018-07-20T07:26:23.549Z,936.58
2018-07-20T07:27:23.459Z,936.54
2018-07-20T07:28:23.464Z,936.53
2018-07-20T07:29:23.527Z,936.56
2018-07-20T07:30:23.490Z,936.53
2018-07-20T07:31:23.501Z,936.53
2018-07-20T07:32:23.677Z,936.52
2018-07-20T07:33:23.544Z,936.56
2018-07-20T07:34:23.559Z,936.56
2018-07-20T07:35:23.548Z,936.55
2018-07-20T07:36:23.567Z,936.50
2018-07-20T07:37:23.779Z,936.55
2018-07-20T07:38:23.584Z,936.54
2018-07-20T07:39:23.597Z,936.53
2018-07-20T07:40:23.611Z,936.56
2018-07-20T07:41:23.692Z,936.54
2018-07-20T07:42:23.753Z,936.53
2018-07-20T07:43:23.677Z,936.57
2018-07-20T07:44:23.709Z,936.58
2018-07-20T07:45:23.681Z,936.60
2018-07-20T07:46:23.688Z,936.57
2018-07-20T07:47:23.837Z,936.56
2018-07-20T07:48:23.714Z,936.55
2018-07-20T07:49:23.831Z,936.59
2018-07-20T07:50:23.725Z,936.59
2018-07-20T07:51:23.758Z,936.57
2018-07-20T07:52:23.906Z,936.54
2018-07-20T07:53:23.804Z,936.57
2018-07-20T07:54:23.802Z,936.59
2018-07-20T07:55:23.795Z,936.60
2018-07-20T07:56:23.808Z,936.60
2018-07-20T07:57:23.991Z,936.60
2018-07-20T07:58:23.828Z,936.59
2018-07-20T07:59:23.908Z,936.59
2018-07-20T08:00:23.861Z,936.62
2018-07-20T08:01:23.866Z,936.63
2018-07-20T08:02:24.058Z,936.63
2018-07-20T08:03:23.934Z,936.61
2018-07-20T08:04:23.940Z,936.62
2018-07-20T08:05:23.913Z,936.62
2018-07-20T08:06:23.957Z,936.62
2018-07-20T08:07:24.044Z,936.57
2018-07-20T08:08:23.971Z,936.63
2018-07-20T08:09:24.009Z,936.58
2018-07-20T08:10:23.997Z,936.58
2018-07-20T08:11:24.005Z,936.57
2018-07-20T08:12:24.079Z,936.59
2018-07-20T08:13:24.017Z,936.60
2018-07-20T08:14:24.036Z,936.61
2018-07-20T08:15:24.057Z,936.57
2018-07-20T08:16:24.062Z,936.64
2018-07-20T08:17:24.156Z,936.61
2018-07-20T08:18:24.076Z,936.55
2018-07-20T08:19:24.165Z,936.56
2018-07-20T08:20:24.191Z,936.56
2018-07-20T08:21:24.116Z,936.58
2018-07-20T08:22:24.359Z,936.56
2018-07-20T08:23:24.113Z,936.57
2018-07-20T08:24:24.157Z,936.57
2018-07-20T08:25:24.157Z,936.57
2018-07-20T08:26:24.216Z,936.56
2018-07-20T08:27:24.283Z,936.53
2018-07-20T08:28:24.207Z,936.58
2018-07-20T08:29:24.266Z,936.54
2018-07-20T08:30:24.220Z,936.53
2018-07-20T08:31:24.228Z,936.54
2018-07-20T08:32:24.340Z,936.53
2018-07-20T08:33:24.255Z,936.54
2018-07-20T08:34:24.280Z,936.56
2018-07-20T08:35:24.286Z,936.56
2018-07-20T08:36:24.293Z,936.55
2018-07-20T08:37:24.387Z,936.57
2018-07-20T08:38:24.316Z,936.58
2018-07-20T08:39:24.347Z,936.60
2018-07-20T08:40:24.338Z,936.57
2018-07-20T08:41:24.352Z,936.62
2018-07-20T08:42:24.512Z,936.58
2018-07-20T08:43:24.375Z,936.59
2018-07-20T08:44:24.451Z,936.61
2018-07-20T08:45:24.427Z,936.58
2018-07-20T08:46:24.511Z,936.57
2018-07-20T08:47:24.550Z,936.60
2018-07-20T08:48:24.465Z,936.61
2018-07-20T08:49:24.472Z,936.59
2018-07-20T08:50:24.458Z,936.57
2018-07-20T08:51:24.520Z,936.60
2018-07-20T08:52:24.513Z,936.55
2018-07-20T08:53:24.590Z,936.50
2018-07-20T08:54:24.664Z,936.53
2018-07-20T08:55:24.522Z,936.50
2018-07-20T08:56:24.507Z,936.47
2018-07-20T08:57:24.588Z,936.49
2018-07-20T08:58:24.721Z,936.48
2018-07-20T08:59:24.576Z,936.46
2018-07-20T09:00:24.600Z,936.49
2018-07-20T09:01:24.592Z,936.46
2018-07-20T09:02:24.577Z,936.48
2018-07-20T09:03:24.769Z,936.45
2018-07-20T09:04:24.629Z,936.51
2018-07-20T09:05:24.650Z,936.47
2018-07-20T09:06:24.651Z,936.47
2018-07-20T09:07:24.656Z,936.45
2018-07-20T09:08:24.814Z,936.46
2018-07-20T09:09:24.693Z,936.45
2018-07-20T09:10:24.748Z,936.47
2018-07-20T09:11:24.708Z,936.44
2018-07-20T09:12:24.714Z,936.48
2018-07-20T09:13:24.905Z,936.52
2018-07-20T09:14:24.759Z,936.51
2018-07-20T09:15:24.759Z,936.54
2018-07-20T09:16:24.774Z,936.52
2018-07-20T09:17:24.782Z,936.51
2018-07-20T09:18:24.938Z,936.52
2018-07-20T09:19:24.803Z,936.49
2018-07-20T09:20:24.855Z,936.51
2018-07-20T09:21:24.829Z,936.51
2018-07-20T09:22:24.838Z,936.47
2018-07-20T09:23:25.097Z,936.47
2018-07-20T09:24:24.872Z,936.44
2018-07-20T09:25:24.878Z,936.43
2018-07-20T09:26:24.894Z,936.41
2018-07-20T09:27:24.897Z,936.41
2018-07-20T09:28:25.114Z,936.47
2018-07-20T09:29:25.027Z,936.44
2018-07-20T09:30:24.937Z,936.48
2018-07-20T09:31:24.945Z,936.40
2018-07-20T09:32:24.957Z,936.45
2018-07-20T09:33:25.181Z,936.44
2018-07-20T09:34:24.978Z,936.43
2018-07-20T09:35:24.995Z,936.45
2018-07-20T09:36:24.984Z,936.44
2018-07-20T09:37:25.011Z,936.44
2018-07-20T09:38:25.155Z,936.42
2018-07-20T09:39:25.066Z,936.41
2018-07-20T09:40:25.077Z,936.41
2018-07-20T09:41:25.062Z,936.40
2018-07-20T09:42:25.078Z,936.43
2018-07-20T09:43:25.333Z,936.44
2018-07-20T09:44:25.176Z,936.44
2018-07-20T09:45:25.110Z,936.45
2018-07-20T09:46:25.124Z,936.47
2018-07-20T09:47:25.137Z,936.45
2018-07-20T09:48:25.255Z,936.45
2018-07-20T09:49:25.156Z,936.43
2018-07-20T09:50:25.173Z,936.41
2018-07-20T09:51:25.182Z,936.44
2018-07-20T09:52:25.197Z,936.43
2018-07-20T09:53:25.388Z,936.40
2018-07-20T09:54:25.220Z,936.41
2018-07-20T09:55:25.230Z,936.39
2018-07-20T09:56:25.242Z,936.42
2018-07-20T09:57:25.265Z,936.43
2018-07-20T09:58:25.482Z,936.40
2018-07-20T09:59:25.370Z,936.36
2018-07-20T10:00:25.293Z,936.39
2018-07-20T10:01:25.278Z,936.39
2018-07-20T10:02:25.323Z,936.39
2018-07-20T10:03:25.483Z,936.41
2018-07-20T10:04:25.375Z,936.48
2018-07-20T10:05:25.353Z,936.47
2018-07-20T10:06:25.365Z,936.48
2018-07-20T10:07:25.371Z,936.48
2018-07-20T10:08:25.533Z,936.51
2018-07-20T10:09:25.393Z,936.49
2018-07-20T10:10:25.419Z,936.49
2018-07-20T10:11:25.421Z,936.44
2018-07-20T10:12:25.430Z,936.47
2018-07-20T10:13:25.451Z,936.49
2018-07-20T10:14:25.610Z,936.48
2018-07-20T10:15:25.486Z,936.52
2018-07-20T10:16:25.466Z,936.45
2018-07-20T10:17:25.496Z,936.52
2018-07-20T10:18:25.486Z,936.52
2018-07-20T10:19:25.706Z,936.54
2018-07-20T10:20:25.531Z,936.54
2018-07-20T10:21:25.548Z,936.56
2018-07-20T10:22:25.564Z,936.59
2018-07-20T10:23:25.569Z,936.60
2018-07-20T10:24:25.751Z,936.62
2018-07-20T10:25:25.588Z,936.69
2018-07-20T10:26:25.611Z,936.66
2018-07-20T10:27:25.596Z,936.66
2018-07-20T10:28:25.625Z,936.65
2018-07-20T10:29:25.816Z,936.64
2018-07-20T10:30:25.636Z,936.68
2018-07-20T10:31:25.673Z,936.65
2018-07-20T10:32:25.679Z,936.64
2018-07-20T10:33:25.695Z,936.71
2018-07-20T10:34:25.987Z,936.71
2018-07-20T10:35:25.719Z,936.70
2018-07-20T10:36:25.730Z,936.73
2018-07-20T10:37:25.746Z,936.74
2018-07-20T10:38:25.764Z,936.71
2018-07-20T10:39:25.950Z,936.69
2018-07-20T10:40:25.779Z,936.73
2018-07-20T10:41:25.790Z,936.73
2018-07-20T10:42:25.806Z,936.75
2018-07-20T10:43:25.827Z,936.80
2018-07-20T10:44:26.001Z,936.82
2018-07-20T10:45:25.871Z,936.80
2018-07-20T10:46:25.861Z,936.85
2018-07-20T10:47:25.870Z,936.83
2018-07-20T10:48:25.890Z,936.86
2018-07-20T10:49:26.048Z,936.88
2018-07-20T10:50:25.917Z,936.86
2018-07-20T10:51:25.926Z,936.87
2018-07-20T10:52:25.936Z,936.88
2018-07-20T10:53:25.954Z,936.89
2018-07-20T10:54:26.156Z,936.93
2018-07-20T10:55:25.983Z,936.92
2018-07-20T10:56:25.989Z,936.96
2018-07-20T10:57:25.984Z,936.94
2018-07-20T10:58:26.021Z,936.97
2018-07-20T10:59:26.216Z,936.98
2018-07-20T11:00:26.044Z,936.93
2018-07-20T11:01:26.117Z,936.92
2018-07-20T11:02:26.077Z,936.90
2018-07-20T11:03:26.092Z,936.92
2018-07-20T11:04:26.254Z,936.97
2018-07-20T11:05:26.119Z,936.98
2018-07-20T11:06:26.132Z,936.97
2018-07-20T11:07:26.141Z,936.97
2018-07-20T11:08:26.158Z,936.99
2018-07-20T11:09:26.410Z,936.95
2018-07-20T11:10:26.177Z,936.98
2018-07-20T11:11:26.189Z,936.99
2018-07-20T11:12:26.222Z,937.03
2018-07-20T11:13:26.237Z,937.04
2018-07-20T11:14:26.403Z,937.04
2018-07-20T11:15:26.276Z,937.00
2018-07-20T11:16:26.280Z,937.01
2018-07-20T11:17:26.295Z,937.03
2018-07-20T11:18:26.312Z,937.02
2018-07-20T11:19:26.484Z,937.04
2018-07-20T11:20:26.440Z,937.10
2018-07-20T11:21:26.356Z,937.07
2018-07-20T11:22:26.372Z,937.11
2018-07-20T11:23:26.385Z,937.14
2018-07-20T11:24:26.399Z,937.16
2018-07-20T11:25:26.565Z,937.22
2018-07-20T11:26:26.414Z,937.22
2018-07-20T11:27:26.455Z,937.23
2018-07-20T11:28:26.449Z,937.28
2018-07-20T11:29:26.542Z,937.23
2018-07-20T11:30:26.503Z,937.28
2018-07-20T11:31:26.772Z,937.24
2018-07-20T11:32:26.530Z,937.26
2018-07-20T11:33:26.544Z,937.23
2018-07-20T11:34:26.567Z,937.24
2018-07-20T11:35:26.589Z,937.29
2018-07-20T11:36:26.750Z,937.25
2018-07-20T11:37:26.619Z,937.28
2018-07-20T11:38:26.631Z,937.30
2018-07-20T11:39:26.644Z,937.28
2018-07-20T11:40:26.654Z,937.27
2018-07-20T11:41:26.787Z,937.30
2018-07-20T11:42:26.706Z,937.30
2018-07-20T11:43:26.701Z,937.28
2018-07-20T11:44:26.761Z,937.31
2018-07-20T11:45:26.751Z,937.31
2018-07-20T11:46:26.868Z,937.34
2018-07-20T11:47:26.785Z,937.34
2018-07-20T11:48:26.804Z,937.33
2018-07-20T11:49:26.823Z,937.38
2018-07-20T11:50:26.839Z,937.38
2018-07-20T11:51:26.955Z,937.41
2018-07-20T11:52:26.871Z,937.41
2018-07-20T11:53:26.890Z,937.43
2018-07-20T11:54:26.891Z,937.45
2018-07-20T11:55:26.912Z,937.45
2018-07-20T11:56:27.077Z,937.48
2018-07-20T11:57:26.959Z,937.50
2018-07-20T11:58:26.984Z,937.53
2018-07-20T11:59:27.052Z,937.59
2018-07-20T12:00:27.023Z,937.58
2018-07-20T12:01:27.218Z,937.57
2018-07-20T12:02:27.053Z,937.56
2018-07-20T12:03:27.068Z,937.52
2018-07-20T12:04:27.090Z,937.56
2018-07-20T12:05:27.107Z,937.50
2018-07-20T12:06:27.274Z,937.48
2018-07-20T12:07:27.150Z,937.50
2018-07-20T12:08:27.155Z,937.54
2018-07-20T12:09:27.236Z,937.50
2018-07-20T12:10:27.257Z,937.53
2018-07-20T12:11:27.423Z,937.48
2018-07-20T12:12:27.270Z,937.52
2018-07-20T12:13:27.226Z,937.53
2018-07-20T12:14:27.257Z,937.51
2018-07-20T12:15:27.285Z,937.57
2018-07-20T12:16:27.403Z,937.59
2018-07-20T12:17:27.319Z,937.60
2018-07-20T12:18:27.337Z,937.59
2018-07-20T12:19:27.367Z,937.64
2018-07-20T12:20:27.383Z,937.57
2018-07-20T12:21:27.546Z,937.59
2018-07-20T12:22:27.414Z,937.57
2018-07-20T12:23:27.434Z,937.59
2018-07-20T12:24:27.445Z,937.64
2018-07-20T12:25:27.474Z,937.63
2018-07-20T12:26:27.639Z,937.64
2018-07-20T12:27:27.512Z,937.59
2018-07-20T12:28:27.526Z,937.61